sensor_id;sensor_type;location;lat;lon;timestamp;pressure;altitude;pressure_sealevel;temperature;humidity
57068;BME280;43391;47.448;18.904;2023-09-12T00:01:05;99512.84;;;16.32;100.00
57068;BME280;43391;47.448;18.904;2023-09-12T00:03:31;99518.09;;;16.32;100.00
57068;BME280;43391;47.448;18.904;2023-09-12T00:05:59;99513.66;;;16.32;100.00
57068;BME280;43391;47.448;18.904;2023-09-12T00:08:25;99514.50;;;16.33;100.00
57068;BME280;43391;47.448;18.904;2023-09-12T00:11:07;99519.84;;;16.31;100.00
57068;BME280;43391;47.448;18.904;2023-09-12T00:13:35;99517.59;;;16.27;100.00
57068;BME280;43391;47.448;18.904;2023-09-12T00:16:01;99532.47;;;16.26;100.00
57068;BME280;43391;47.448;18.904;2023-09-12T00:18:26;99520.31;;;16.25;100.00
57068;BME280;43391;47.448;18.904;2023-09-12T00:20:52;99517.81;;;16.24;100.00
57068;BME280;43391;47.448;18.904;2023-09-12T00:23:18;99509.84;;;16.25;100.00
57068;BME280;43391;47.448;18.904;2023-09-12T00:25:43;99513.31;;;16.26;100.00
57068;BME280;43391;47.448;18.904;2023-09-12T00:28:09;99515.44;;;16.20;100.00
57068;BME280;43391;47.448;18.904;2023-09-12T00:30:34;99518.50;;;16.14;100.00
57068;BME280;43391;47.448;18.904;2023-09-12T00:32:59;99517.09;;;16.10;100.00
57068;BME280;43391;47.448;18.904;2023-09-12T00:35:25;99513.13;;;16.04;100.00
57068;BME280;43391;47.448;18.904;2023-09-12T00:37:50;99508.38;;;15.98;100.00
57068;BME280;43391;47.448;18.904;2023-09-12T00:40:15;99514.41;;;15.99;100.00
57068;BME280;43391;47.448;18.904;2023-09-12T00:42:41;99516.44;;;15.95;100.00
57068;BME280;43391;47.448;18.904;2023-09-12T00:45:06;99513.09;;;15.93;100.00
57068;BME280;43391;47.448;18.904;2023-09-12T00:47:32;99510.50;;;15.93;100.00
57068;BME280;43391;47.448;18.904;2023-09-12T00:49:59;99509.00;;;15.89;100.00
57068;BME280;43391;47.448;18.904;2023-09-12T00:52:26;99509.47;;;15.83;100.00
57068;BME280;43391;47.448;18.904;2023-09-12T00:54:54;99516.47;;;15.82;100.00
57068;BME280;43391;47.448;18.904;2023-09-12T00:57:20;99512.31;;;15.79;100.00
57068;BME280;43391;47.448;18.904;2023-09-12T00:59:47;99523.63;;;15.80;100.00
57068;BME280;43391;47.448;18.904;2023-09-12T01:02:13;99516.81;;;15.77;100.00
57068;BME280;43391;47.448;18.904;2023-09-12T01:04:38;99512.75;;;15.73;100.00
57068;BME280;43391;47.448;18.904;2023-09-12T01:07:04;99511.00;;;15.74;100.00
57068;BME280;43391;47.448;18.904;2023-09-12T01:09:31;99513.59;;;15.74;100.00
57068;BME280;43391;47.448;18.904;2023-09-12T01:11:57;99507.03;;;15.68;100.00
57068;BME280;43391;47.448;18.904;2023-09-12T01:14:22;99507.28;;;15.65;100.00
57068;BME280;43391;47.448;18.904;2023-09-12T01:16:48;99512.94;;;15.59;100.00
57068;BME280;43391;47.448;18.904;2023-09-12T01:19:14;99510.56;;;15.56;100.00
57068;BME280;43391;47.448;18.904;2023-09-12T01:27:28;99505.53;;;15.52;100.00
57068;BME280;43391;47.448;18.904;2023-09-12T01:29:56;99505.38;;;15.43;100.00
57068;BME280;43391;47.448;18.904;2023-09-12T01:32:23;99506.53;;;15.38;100.00
57068;BME280;43391;47.448;18.904;2023-09-12T01:34:48;99509.06;;;15.40;100.00
57068;BME280;43391;47.448;18.904;2023-09-12T01:37:14;99501.31;;;15.38;100.00
57068;BME280;43391;47.448;18.904;2023-09-12T01:39:40;99504.13;;;15.35;100.00
57068;BME280;43391;47.448;18.904;2023-09-12T01:42:09;99507.50;;;15.37;100.00
57068;BME280;43391;47.448;18.904;2023-09-12T01:44:37;99506.03;;;15.33;100.00
57068;BME280;43391;47.448;18.904;2023-09-12T01:47:05;99510.56;;;15.31;100.00
57068;BME280;43391;47.448;18.904;2023-09-12T01:49:32;99507.09;;;15.31;100.00
57068;BME280;43391;47.448;18.904;2023-09-12T01:51:58;99509.00;;;15.28;100.00
57068;BME280;43391;47.448;18.904;2023-09-12T01:54:26;99518.81;;;15.25;100.00
57068;BME280;43391;47.448;18.904;2023-09-12T01:56:54;99513.94;;;15.20;100.00
57068;BME280;43391;47.448;18.904;2023-09-12T01:59:22;99514.16;;;15.17;100.00
57068;BME280;43391;47.448;18.904;2023-09-12T02:01:48;99509.66;;;15.19;100.00
57068;BME280;43391;47.448;18.904;2023-09-12T02:04:13;99514.78;;;15.21;100.00
57068;BME280;43391;47.448;18.904;2023-09-12T02:06:39;99510.50;;;15.20;100.00
57068;BME280;43391;47.448;18.904;2023-09-12T02:09:04;99516.66;;;15.19;100.00
57068;BME280;43391;47.448;18.904;2023-09-12T02:11:29;99515.81;;;15.18;100.00
57068;BME280;43391;47.448;18.904;2023-09-12T02:13:55;99514.38;;;15.14;100.00
57068;BME280;43391;47.448;18.904;2023-09-12T02:16:20;99517.69;;;15.16;100.00
57068;BME280;43391;47.448;18.904;2023-09-12T02:18:45;99521.88;;;15.19;100.00
57068;BME280;43391;47.448;18.904;2023-09-12T02:21:11;99518.53;;;15.17;100.00
57068;BME280;43391;47.448;18.904;2023-09-12T02:23:36;99514.38;;;15.14;100.00
57068;BME280;43391;47.448;18.904;2023-09-12T02:26:02;99523.16;;;15.13;100.00
57068;BME280;43391;47.448;18.904;2023-09-12T02:28:27;99518.25;;;15.08;100.00
57068;BME280;43391;47.448;18.904;2023-09-12T02:30:53;99517.63;;;15.05;100.00
57068;BME280;43391;47.448;18.904;2023-09-12T02:33:18;99515.75;;;15.07;100.00
57068;BME280;43391;47.448;18.904;2023-09-12T02:35:43;99524.97;;;14.99;100.00
57068;BME280;43391;47.448;18.904;2023-09-12T02:38:09;99512.84;;;14.98;100.00
57068;BME280;43391;47.448;18.904;2023-09-12T02:40:34;99515.66;;;14.95;100.00
57068;BME280;43391;47.448;18.904;2023-09-12T02:43:00;99517.66;;;14.92;100.00
57068;BME280;43391;47.448;18.904;2023-09-12T02:45:25;99517.75;;;14.90;100.00
57068;BME280;43391;47.448;18.904;2023-09-12T02:47:50;99520.16;;;14.93;100.00
57068;BME280;43391;47.448;18.904;2023-09-12T02:50:16;99523.72;;;14.92;100.00
57068;BME280;43391;47.448;18.904;2023-09-12T02:52:41;99518.09;;;14.85;100.00
57068;BME280;43391;47.448;18.904;2023-09-12T02:55:06;99513.81;;;14.84;100.00
57068;BME280;43391;47.448;18.904;2023-09-12T02:57:32;99515.69;;;14.82;100.00
57068;BME280;43391;47.448;18.904;2023-09-12T02:59:58;99512.25;;;14.82;100.00
57068;BME280;43391;47.448;18.904;2023-09-12T03:02:23;99511.50;;;14.80;100.00
57068;BME280;43391;47.448;18.904;2023-09-12T03:04:48;99503.91;;;14.77;100.00
57068;BME280;43391;47.448;18.904;2023-09-12T03:07:14;99513.50;;;14.76;100.00
57068;BME280;43391;47.448;18.904;2023-09-12T03:09:39;99511.84;;;14.75;100.00
57068;BME280;43391;47.448;18.904;2023-09-12T03:12:05;99514.50;;;14.73;100.00
57068;BME280;43391;47.448;18.904;2023-09-12T03:14:30;99513.69;;;14.73;100.00
57068;BME280;43391;47.448;18.904;2023-09-12T03:16:55;99517.91;;;14.76;100.00
57068;BME280;43391;47.448;18.904;2023-09-12T03:19:21;99512.75;;;14.74;100.00
57068;BME280;43391;47.448;18.904;2023-09-12T03:21:47;99510.78;;;14.65;100.00
57068;BME280;43391;47.448;18.904;2023-09-12T03:24:12;99516.09;;;14.63;100.00
57068;BME280;43391;47.448;18.904;2023-09-12T03:26:37;99517.97;;;14.61;100.00
57068;BME280;43391;47.448;18.904;2023-09-12T03:29:03;99522.38;;;14.60;100.00
57068;BME280;43391;47.448;18.904;2023-09-12T03:31:29;99520.69;;;14.59;100.00
57068;BME280;43391;47.448;18.904;2023-09-12T03:33:54;99526.53;;;14.63;100.00
57068;BME280;43391;47.448;18.904;2023-09-12T03:36:20;99526.25;;;14.68;100.00
57068;BME280;43391;47.448;18.904;2023-09-12T03:38:45;99528.63;;;14.71;100.00
57068;BME280;43391;47.448;18.904;2023-09-12T03:41:11;99531.25;;;14.71;100.00
57068;BME280;43391;47.448;18.904;2023-09-12T03:43:36;99536.56;;;14.69;100.00
57068;BME280;43391;47.448;18.904;2023-09-12T03:46:02;99530.41;;;14.70;100.00
57068;BME280;43391;47.448;18.904;2023-09-12T03:48:29;99528.53;;;14.72;100.00
57068;BME280;43391;47.448;18.904;2023-09-12T03:50:56;99526.75;;;14.73;100.00
57068;BME280;43391;47.448;18.904;2023-09-12T03:53:21;99518.94;;;14.73;100.00
57068;BME280;43391;47.448;18.904;2023-09-12T03:55:46;99533.94;;;14.69;100.00
57068;BME280;43391;47.448;18.904;2023-09-12T03:58:12;99528.84;;;14.68;100.00
57068;BME280;43391;47.448;18.904;2023-09-12T04:00:37;99521.03;;;14.68;100.00
57068;BME280;43391;47.448;18.904;2023-09-12T04:03:03;99520.16;;;14.67;100.00
57068;BME280;43391;47.448;18.904;2023-09-12T04:05:28;99527.28;;;14.65;100.00
57068;BME280;43391;47.448;18.904;2023-09-12T04:07:53;99518.69;;;14.63;100.00
57068;BME280;43391;47.448;18.904;2023-09-12T04:10:20;99528.44;;;14.61;100.00
57068;BME280;43391;47.448;18.904;2023-09-12T04:12:45;99526.88;;;14.58;100.00
57068;BME280;43391;47.448;18.904;2023-09-12T04:15:10;99528.84;;;14.55;100.00
57068;BME280;43391;47.448;18.904;2023-09-12T04:17:36;99526.97;;;14.57;100.00
57068;BME280;43391;47.448;18.904;2023-09-12T04:20:01;99526.25;;;14.55;100.00
57068;BME280;43391;47.448;18.904;2023-09-12T04:22:26;99528.00;;;14.54;100.00
57068;BME280;43391;47.448;18.904;2023-09-12T04:24:53;99530.72;;;14.53;100.00
57068;BME280;43391;47.448;18.904;2023-09-12T04:27:19;99524.69;;;14.52;100.00
57068;BME280;43391;47.448;18.904;2023-09-12T04:29:44;99528.84;;;14.55;100.00
57068;BME280;43391;47.448;18.904;2023-09-12T04:32:10;99532.19;;;14.57;100.00
57068;BME280;43391;47.448;18.904;2023-09-12T04:34:35;99525.19;;;14.57;100.00
57068;BME280;43391;47.448;18.904;2023-09-12T04:37:00;99534.59;;;14.60;100.00
57068;BME280;43391;47.448;18.904;2023-09-12T04:39:27;99536.06;;;14.90;100.00
57068;BME280;43391;47.448;18.904;2023-09-12T04:41:53;99537.50;;;15.07;100.00
57068;BME280;43391;47.448;18.904;2023-09-12T04:44:18;99534.94;;;15.19;100.00
57068;BME280;43391;47.448;18.904;2023-09-12T04:46:44;99534.44;;;15.13;100.00
57068;BME280;43391;47.448;18.904;2023-09-12T04:49:09;99539.28;;;15.07;100.00
57068;BME280;43391;47.448;18.904;2023-09-12T04:51:34;99540.44;;;15.03;100.00
57068;BME280;43391;47.448;18.904;2023-09-12T04:54:00;99538.97;;;14.98;100.00
57068;BME280;43391;47.448;18.904;2023-09-12T04:56:25;99546.81;;;14.98;100.00
57068;BME280;43391;47.448;18.904;2023-09-12T04:58:50;99555.38;;;15.00;100.00
57068;BME280;43391;47.448;18.904;2023-09-12T05:01:16;99556.03;;;15.04;100.00
57068;BME280;43391;47.448;18.904;2023-09-12T05:03:42;99552.56;;;15.04;100.00
57068;BME280;43391;47.448;18.904;2023-09-12T05:06:08;99557.59;;;15.07;100.00
57068;BME280;43391;47.448;18.904;2023-09-12T05:08:33;99554.03;;;15.08;100.00
57068;BME280;43391;47.448;18.904;2023-09-12T05:10:59;99556.19;;;15.14;100.00
57068;BME280;43391;47.448;18.904;2023-09-12T05:13:24;99553.84;;;15.22;100.00
57068;BME280;43391;47.448;18.904;2023-09-12T05:15:50;99561.84;;;15.21;100.00
57068;BME280;43391;47.448;18.904;2023-09-12T05:18:15;99552.81;;;15.25;100.00
57068;BME280;43391;47.448;18.904;2023-09-12T05:20:40;99547.28;;;15.30;100.00
57068;BME280;43391;47.448;18.904;2023-09-12T05:23:06;99555.63;;;15.35;100.00
57068;BME280;43391;47.448;18.904;2023-09-12T05:25:31;99555.19;;;15.41;100.00
57068;BME280;43391;47.448;18.904;2023-09-12T05:27:57;99560.06;;;15.46;100.00
57068;BME280;43391;47.448;18.904;2023-09-12T05:30:22;99562.38;;;15.50;100.00
57068;BME280;43391;47.448;18.904;2023-09-12T05:32:47;99568.09;;;15.56;100.00
57068;BME280;43391;47.448;18.904;2023-09-12T05:35:13;99572.03;;;15.61;100.00
57068;BME280;43391;47.448;18.904;2023-09-12T05:37:38;99576.84;;;15.67;100.00
57068;BME280;43391;47.448;18.904;2023-09-12T05:40:04;99578.91;;;15.75;100.00
57068;BME280;43391;47.448;18.904;2023-09-12T05:42:29;99575.00;;;15.81;100.00
57068;BME280;43391;47.448;18.904;2023-09-12T05:44:55;99578.88;;;15.88;100.00
57068;BME280;43391;47.448;18.904;2023-09-12T05:47:21;99583.31;;;15.99;100.00
57068;BME280;43391;47.448;18.904;2023-09-12T05:49:47;99583.94;;;16.03;100.00
57068;BME280;43391;47.448;18.904;2023-09-12T05:52:12;99580.84;;;16.09;100.00
57068;BME280;43391;47.448;18.904;2023-09-12T05:54:38;99586.56;;;16.14;100.00
57068;BME280;43391;47.448;18.904;2023-09-12T05:57:04;99581.03;;;16.19;100.00
57068;BME280;43391;47.448;18.904;2023-09-12T05:59:30;99582.13;;;16.28;100.00
57068;BME280;43391;47.448;18.904;2023-09-12T06:01:55;99577.84;;;16.38;100.00
57068;BME280;43391;47.448;18.904;2023-09-12T06:04:21;99586.78;;;16.47;100.00
57068;BME280;43391;47.448;18.904;2023-09-12T06:06:47;99587.78;;;16.57;100.00
57068;BME280;43391;47.448;18.904;2023-09-12T06:09:12;99591.25;;;16.69;100.00
57068;BME280;43391;47.448;18.904;2023-09-12T06:11:37;99595.53;;;16.82;100.00
57068;BME280;43391;47.448;18.904;2023-09-12T06:14:03;99583.06;;;16.97;100.00
57068;BME280;43391;47.448;18.904;2023-09-12T06:16:28;99591.31;;;17.15;100.00
57068;BME280;43391;47.448;18.904;2023-09-12T06:18:54;99593.78;;;17.28;100.00
57068;BME280;43391;47.448;18.904;2023-09-12T06:21:20;99592.09;;;17.38;100.00
57068;BME280;43391;47.448;18.904;2023-09-12T06:26:35;99588.59;;;17.61;100.00
57068;BME280;43391;47.448;18.904;2023-09-12T06:29:01;99593.09;;;17.70;100.00
57068;BME280;43391;47.448;18.904;2023-09-12T06:31:27;99594.72;;;17.83;99.55
57068;BME280;43391;47.448;18.904;2023-09-12T06:33:53;99599.97;;;17.94;99.35
57068;BME280;43391;47.448;18.904;2023-09-12T06:36:18;99596.56;;;18.03;100.00
57068;BME280;43391;47.448;18.904;2023-09-12T06:38:43;99599.19;;;18.15;99.35
57068;BME280;43391;47.448;18.904;2023-09-12T06:41:09;99598.97;;;18.28;99.24
57068;BME280;43391;47.448;18.904;2023-09-12T06:43:34;99590.41;;;18.47;98.33
57068;BME280;43391;47.448;18.904;2023-09-12T06:45:59;99598.78;;;18.62;97.13
57068;BME280;43391;47.448;18.904;2023-09-12T06:48:25;99599.88;;;18.81;97.07
57068;BME280;43391;47.448;18.904;2023-09-12T06:50:50;99603.28;;;19.03;96.08
57068;BME280;43391;47.448;18.904;2023-09-12T06:53:15;99596.44;;;19.21;95.80
57068;BME280;43391;47.448;18.904;2023-09-12T06:55:41;99594.72;;;19.42;93.90
57068;BME280;43391;47.448;18.904;2023-09-12T06:58:06;99596.53;;;19.61;93.92
57068;BME280;43391;47.448;18.904;2023-09-12T07:00:33;99596.53;;;19.81;94.23
57068;BME280;43391;47.448;18.904;2023-09-12T07:02:58;99597.00;;;20.05;92.96
57068;BME280;43391;47.448;18.904;2023-09-12T07:05:23;99605.75;;;20.26;90.47
57068;BME280;43391;47.448;18.904;2023-09-12T07:07:49;99609.56;;;20.51;91.12
57068;BME280;43391;47.448;18.904;2023-09-12T07:10:14;99612.19;;;20.71;90.37
57068;BME280;43391;47.448;18.904;2023-09-12T07:12:39;99612.13;;;20.81;89.76
57068;BME280;43391;47.448;18.904;2023-09-12T07:15:05;99622.41;;;20.94;87.69
57068;BME280;43391;47.448;18.904;2023-09-12T07:17:31;99615.00;;;21.07;83.04
57068;BME280;43391;47.448;18.904;2023-09-12T07:19:56;99609.31;;;21.30;82.46
57068;BME280;43391;47.448;18.904;2023-09-12T07:22:22;99612.44;;;21.44;81.71
57068;BME280;43391;47.448;18.904;2023-09-12T07:24:47;99616.94;;;21.61;82.00
57068;BME280;43391;47.448;18.904;2023-09-12T07:27:13;99610.56;;;21.82;78.39
57068;BME280;43391;47.448;18.904;2023-09-12T07:29:38;99614.19;;;21.99;76.35
57068;BME280;43391;47.448;18.904;2023-09-12T07:32:03;99617.63;;;22.18;75.34
57068;BME280;43391;47.448;18.904;2023-09-12T07:34:29;99619.13;;;22.39;76.33
57068;BME280;43391;47.448;18.904;2023-09-12T07:36:54;99614.66;;;22.58;74.45
57068;BME280;43391;47.448;18.904;2023-09-12T07:39:20;99618.53;;;22.72;74.69
57068;BME280;43391;47.448;18.904;2023-09-12T07:41:46;99615.81;;;22.90;75.23
57068;BME280;43391;47.448;18.904;2023-09-12T07:44:11;99620.00;;;23.01;76.35
57068;BME280;43391;47.448;18.904;2023-09-12T07:46:40;99620.72;;;23.11;77.68
57068;BME280;43391;47.448;18.904;2023-09-12T07:49:05;99617.25;;;23.19;77.09
57068;BME280;43391;47.448;18.904;2023-09-12T07:51:30;99623.09;;;23.31;76.36
57068;BME280;43391;47.448;18.904;2023-09-12T07:53:56;99621.19;;;23.41;77.77
57068;BME280;43391;47.448;18.904;2023-09-12T07:56:21;99618.41;;;23.59;75.92
57068;BME280;43391;47.448;18.904;2023-09-12T07:58:46;99611.34;;;23.77;72.67
57068;BME280;43391;47.448;18.904;2023-09-12T08:01:14;99622.63;;;24.04;71.76
57068;BME280;43391;47.448;18.904;2023-09-12T08:03:42;99612.22;;;24.27;71.52
57068;BME280;43391;47.448;18.904;2023-09-12T08:06:07;99615.69;;;24.36;72.16
57068;BME280;43391;47.448;18.904;2023-09-12T08:08:33;99617.13;;;24.47;70.18
57068;BME280;43391;47.448;18.904;2023-09-12T08:10:59;99617.13;;;24.63;69.44
57068;BME280;43391;47.448;18.904;2023-09-12T08:13:28;99613.63;;;24.71;70.60
57068;BME280;43391;47.448;18.904;2023-09-12T08:15:55;99614.44;;;24.80;69.72
57068;BME280;43391;47.448;18.904;2023-09-12T08:18:20;99612.94;;;24.86;68.90
57068;BME280;43391;47.448;18.904;2023-09-12T08:20:47;99614.72;;;25.02;68.75
57068;BME280;43391;47.448;18.904;2023-09-12T08:23:12;99612.31;;;25.15;66.28
57068;BME280;43391;47.448;18.904;2023-09-12T08:25:39;99617.09;;;25.28;66.33
57068;BME280;43391;47.448;18.904;2023-09-12T08:28:04;99616.22;;;25.36;66.08
57068;BME280;43391;47.448;18.904;2023-09-12T08:30:30;99614.47;;;25.52;66.96
57068;BME280;43391;47.448;18.904;2023-09-12T08:32:55;99621.09;;;25.64;64.96
57068;BME280;43391;47.448;18.904;2023-09-12T08:35:21;99609.72;;;25.79;64.73
57068;BME280;43391;47.448;18.904;2023-09-12T08:37:46;99623.16;;;26.00;66.25
57068;BME280;43391;47.448;18.904;2023-09-12T08:40:11;99616.34;;;26.21;64.53
57068;BME280;43391;47.448;18.904;2023-09-12T08:42:42;99614.19;;;26.40;64.86
57068;BME280;43391;47.448;18.904;2023-09-12T08:45:11;99618.16;;;26.59;63.71
57068;BME280;43391;47.448;18.904;2023-09-12T08:47:40;99614.78;;;26.65;64.39
57068;BME280;43391;47.448;18.904;2023-09-12T08:50:09;99617.19;;;26.75;60.93
57068;BME280;43391;47.448;18.904;2023-09-12T08:52:35;99610.94;;;26.83;60.44
57068;BME280;43391;47.448;18.904;2023-09-12T08:55:01;99613.25;;;27.01;61.30
57068;BME280;43391;47.448;18.904;2023-09-12T08:57:27;99612.47;;;27.23;60.16
57068;BME280;43391;47.448;18.904;2023-09-12T08:59:53;99619.78;;;27.36;56.40
57068;BME280;43391;47.448;18.904;2023-09-12T09:02:20;99616.63;;;27.47;56.06
57068;BME280;43391;47.448;18.904;2023-09-12T09:04:47;99620.75;;;27.50;54.54
57068;BME280;43391;47.448;18.904;2023-09-12T09:07:13;99621.69;;;27.57;52.02
57068;BME280;43391;47.448;18.904;2023-09-12T09:09:39;99616.72;;;27.69;52.79
57068;BME280;43391;47.448;18.904;2023-09-12T09:12:09;99615.38;;;27.80;47.96
57068;BME280;43391;47.448;18.904;2023-09-12T09:14:35;99619.50;;;27.82;48.02
57068;BME280;43391;47.448;18.904;2023-09-12T09:17:01;99614.66;;;27.93;49.22
57068;BME280;43391;47.448;18.904;2023-09-12T09:19:43;99615.59;;;28.07;48.75
57068;BME280;43391;47.448;18.904;2023-09-12T09:22:09;99601.28;;;28.08;48.96
57068;BME280;43391;47.448;18.904;2023-09-12T09:24:34;99611.34;;;28.12;48.41
57068;BME280;43391;47.448;18.904;2023-09-12T09:26:59;99608.09;;;28.17;48.84
57068;BME280;43391;47.448;18.904;2023-09-12T09:29:27;99612.88;;;28.22;47.63
57068;BME280;43391;47.448;18.904;2023-09-12T09:31:57;99614.13;;;28.26;47.19
57068;BME280;43391;47.448;18.904;2023-09-12T09:34:23;99610.50;;;28.34;48.71
57068;BME280;43391;47.448;18.904;2023-09-12T09:36:56;99614.69;;;28.43;47.51
57068;BME280;43391;47.448;18.904;2023-09-12T09:39:27;99615.31;;;28.45;47.47
57068;BME280;43391;47.448;18.904;2023-09-12T09:41:57;99615.75;;;28.49;48.62
57068;BME280;43391;47.448;18.904;2023-09-12T09:44:24;99614.34;;;28.53;42.90
57068;BME280;43391;47.448;18.904;2023-09-12T09:46:59;99613.13;;;28.56;42.45
57068;BME280;43391;47.448;18.904;2023-09-12T09:49:28;99609.91;;;28.67;44.02
57068;BME280;43391;47.448;18.904;2023-09-12T09:51:55;99610.47;;;28.62;41.15
57068;BME280;43391;47.448;18.904;2023-09-12T09:54:24;99608.88;;;28.68;40.71
57068;BME280;43391;47.448;18.904;2023-09-12T09:56:53;99607.84;;;28.69;41.63
57068;BME280;43391;47.448;18.904;2023-09-12T09:59:21;99605.84;;;28.78;42.19
57068;BME280;43391;47.448;18.904;2023-09-12T10:01:48;99605.69;;;28.86;41.14
57068;BME280;43391;47.448;18.904;2023-09-12T10:04:14;99607.78;;;28.91;40.77
57068;BME280;43391;47.448;18.904;2023-09-12T10:06:43;99605.81;;;29.07;41.06
57068;BME280;43391;47.448;18.904;2023-09-12T10:09:10;99597.41;;;29.10;40.21
57068;BME280;43391;47.448;18.904;2023-09-12T10:11:38;99597.84;;;29.20;41.64
57068;BME280;43391;47.448;18.904;2023-09-12T10:14:04;99604.47;;;29.38;42.66
57068;BME280;43391;47.448;18.904;2023-09-12T10:16:35;99601.00;;;29.44;42.50
57068;BME280;43391;47.448;18.904;2023-09-12T10:19:11;99600.84;;;29.52;42.06
57068;BME280;43391;47.448;18.904;2023-09-12T10:24:16;99599.63;;;29.68;42.82
57068;BME280;43391;47.448;18.904;2023-09-12T10:26:43;99588.75;;;29.77;41.83
57068;BME280;43391;47.448;18.904;2023-09-12T10:29:13;99586.25;;;29.75;42.01
57068;BME280;43391;47.448;18.904;2023-09-12T10:31:39;99595.94;;;29.76;41.49
57068;BME280;43391;47.448;18.904;2023-09-12T10:34:05;99583.59;;;29.89;41.67
57068;BME280;43391;47.448;18.904;2023-09-12T10:36:37;99581.97;;;29.88;39.54
57068;BME280;43391;47.448;18.904;2023-09-12T10:39:04;99583.41;;;29.83;40.98
57068;BME280;43391;47.448;18.904;2023-09-12T10:41:30;99577.03;;;29.91;41.47
57068;BME280;43391;47.448;18.904;2023-09-12T10:43:57;99572.09;;;30.02;42.19
57068;BME280;43391;47.448;18.904;2023-09-12T10:46:23;99574.56;;;30.10;41.67
57068;BME280;43391;47.448;18.904;2023-09-12T10:48:49;99573.53;;;30.25;41.55
57068;BME280;43391;47.448;18.904;2023-09-12T10:51:16;99575.56;;;30.43;40.04
57068;BME280;43391;47.448;18.904;2023-09-12T10:53:46;99572.63;;;30.58;38.32
57068;BME280;43391;47.448;18.904;2023-09-12T10:56:16;99573.25;;;30.60;38.16
57068;BME280;43391;47.448;18.904;2023-09-12T11:01:32;99571.38;;;30.67;37.25
57068;BME280;43391;47.448;18.904;2023-09-12T11:03:58;99576.94;;;30.66;36.32
57068;BME280;43391;47.448;18.904;2023-09-12T11:06:29;99570.19;;;30.56;34.39
57068;BME280;43391;47.448;18.904;2023-09-12T11:11:39;99564.16;;;30.68;38.08
57068;BME280;43391;47.448;18.904;2023-09-12T11:14:05;99554.28;;;30.75;38.40
57068;BME280;43391;47.448;18.904;2023-09-12T11:16:31;99556.06;;;30.88;38.14
57068;BME280;43391;47.448;18.904;2023-09-12T11:19:21;99550.72;;;30.88;33.65
57068;BME280;43391;47.448;18.904;2023-09-12T11:21:53;99558.78;;;30.81;36.61
57068;BME280;43391;47.448;18.904;2023-09-12T11:24:19;99554.03;;;30.83;37.92
57068;BME280;43391;47.448;18.904;2023-09-12T11:26:59;99552.16;;;30.91;33.07
57068;BME280;43391;47.448;18.904;2023-09-12T11:29:35;99550.47;;;30.96;34.47
57068;BME280;43391;47.448;18.904;2023-09-12T11:32:02;99555.84;;;30.96;34.18
57068;BME280;43391;47.448;18.904;2023-09-12T11:34:30;99538.25;;;31.07;35.29
57068;BME280;43391;47.448;18.904;2023-09-12T11:37:01;99544.59;;;31.20;34.94
57068;BME280;43391;47.448;18.904;2023-09-12T11:39:29;99548.16;;;31.07;32.77
57068;BME280;43391;47.448;18.904;2023-09-12T11:41:56;99539.38;;;30.93;32.47
57068;BME280;43391;47.448;18.904;2023-09-12T11:44:22;99547.41;;;30.93;33.21
57068;BME280;43391;47.448;18.904;2023-09-12T11:46:49;99543.50;;;30.88;33.77
57068;BME280;43391;47.448;18.904;2023-09-12T11:49:15;99536.25;;;30.96;33.39
57068;BME280;43391;47.448;18.904;2023-09-12T11:54:40;99528.69;;;31.25;34.34
57068;BME280;43391;47.448;18.904;2023-09-12T11:57:10;99530.31;;;31.33;32.93
57068;BME280;43391;47.448;18.904;2023-09-12T11:59:38;99531.78;;;31.28;32.64
57068;BME280;43391;47.448;18.904;2023-09-12T12:02:08;99535.06;;;31.31;33.64
57068;BME280;43391;47.448;18.904;2023-09-12T12:04:34;99527.56;;;31.39;33.97
57068;BME280;43391;47.448;18.904;2023-09-12T12:07:00;99523.97;;;31.52;33.31
57068;BME280;43391;47.448;18.904;2023-09-12T12:09:30;99525.84;;;31.52;33.36
57068;BME280;43391;47.448;18.904;2023-09-12T12:11:56;99523.81;;;31.47;32.83
57068;BME280;43391;47.448;18.904;2023-09-12T12:14:25;99524.28;;;31.37;33.24
57068;BME280;43391;47.448;18.904;2023-09-12T12:16:52;99524.88;;;31.39;31.81
57068;BME280;43391;47.448;18.904;2023-09-12T12:19:17;99524.88;;;31.39;32.17
57068;BME280;43391;47.448;18.904;2023-09-12T12:21:43;99510.63;;;31.46;31.73
57068;BME280;43391;47.448;18.904;2023-09-12T12:24:13;99513.78;;;31.36;31.86
57068;BME280;43391;47.448;18.904;2023-09-12T12:26:43;99510.50;;;31.34;31.80
57068;BME280;43391;47.448;18.904;2023-09-12T12:29:09;99507.53;;;31.42;33.34
57068;BME280;43391;47.448;18.904;2023-09-12T12:31:35;99508.50;;;31.54;31.57
57068;BME280;43391;47.448;18.904;2023-09-12T12:34:01;99502.50;;;31.52;31.88
57068;BME280;43391;47.448;18.904;2023-09-12T12:36:26;99499.91;;;31.46;31.02
57068;BME280;43391;47.448;18.904;2023-09-12T12:38:52;99493.94;;;31.44;32.00
57068;BME280;43391;47.448;18.904;2023-09-12T12:41:26;99485.00;;;31.50;32.92
57068;BME280;43391;47.448;18.904;2023-09-12T12:43:53;99490.00;;;31.46;32.05
57068;BME280;43391;47.448;18.904;2023-09-12T12:46:24;99491.28;;;31.37;31.71
57068;BME280;43391;47.448;18.904;2023-09-12T12:48:50;99486.22;;;31.28;32.83
57068;BME280;43391;47.448;18.904;2023-09-12T12:51:23;99481.66;;;31.29;33.28
57068;BME280;43391;47.448;18.904;2023-09-12T12:53:53;99483.13;;;31.25;32.60
57068;BME280;43391;47.448;18.904;2023-09-12T12:56:28;99479.38;;;31.26;32.42
57068;BME280;43391;47.448;18.904;2023-09-12T12:58:55;99474.06;;;31.19;32.54
57068;BME280;43391;47.448;18.904;2023-09-12T13:01:22;99487.09;;;31.15;32.50